Decoded Metar for EPWA (WARSAW in POLAND) (IATA:WAW) | Meteo·Mobile Aviation Weather
aviador You're here:

EPWA Decoded Metar

WARSAW in POLAND
Report Time2019-07-15 23:30:00
UTC Time2019-07-15 23:56:31
Flight Rules vfr VFR
Wind170° at 01 kt
W.Decomp.*RWY 15: 1.0 kt HW 0.3 kt RCW
RWY 11: 0.6 kt HW 0.8 kt RCW
Visibility9999 m
Phenomena:N/A
Clouds:N/A
Expected CloudBase > 1,600 ft AGL from Temp-Dew spread
CeilingNone
Temp11°C (ISA -3)
Dew Point07°C (77% RH)
AAT10.0°C
QNH1012 hPa
Density Alt128 ft
Elevation351 ft
Report Wrong Elevation
Raw Report
EPWA 152330Z 17001KT CAVOK 11/07 Q1012 NOSIG=

Extra information for EPWA:More info

Metar Taf Metar & Taf Last 4 Metars F.Rules Stats Wind Profile Meteogram Temp Stats Airport Information Weather charts Add Link Nearby VenuesMetar ALERT Operation Metar Decoded Social comments